sensor_id;sensor_type;location;lat;lon;timestamp;pressure;altitude;pressure_sealevel;temperature;humidity
14383;BME280;7275;50.328;8.720;2022-07-04T00:01:47;99918.28;;;25.86;33.67
14383;BME280;7275;50.328;8.720;2022-07-04T00:04:14;99917.03;;;25.80;33.83
14383;BME280;7275;50.328;8.720;2022-07-04T00:06:42;99915.63;;;25.76;33.91
14383;BME280;7275;50.328;8.720;2022-07-04T00:09:11;99921.34;;;25.73;33.89
14383;BME280;7275;50.328;8.720;2022-07-04T00:11:39;99914.66;;;25.68;33.99
14383;BME280;7275;50.328;8.720;2022-07-04T00:14:06;99924.91;;;25.64;33.96
14383;BME280;7275;50.328;8.720;2022-07-04T00:16:34;99923.50;;;25.60;34.10
14383;BME280;7275;50.328;8.720;2022-07-04T00:19:02;99927.50;;;25.56;34.11
14383;BME280;7275;50.328;8.720;2022-07-04T00:21:29;99933.34;;;25.52;34.25
14383;BME280;7275;50.328;8.720;2022-07-04T00:23:57;99921.97;;;25.48;34.20
14383;BME280;7275;50.328;8.720;2022-07-04T00:26:26;99927.97;;;25.42;34.34
14383;BME280;7275;50.328;8.720;2022-07-04T00:28:54;99938.06;;;25.40;34.45
14383;BME280;7275;50.328;8.720;2022-07-04T00:31:21;99939.19;;;25.37;34.57
14383;BME280;7275;50.328;8.720;2022-07-04T00:33:49;99930.53;;;25.34;34.65
14383;BME280;7275;50.328;8.720;2022-07-04T00:36:16;99939.78;;;25.31;34.62
14383;BME280;7275;50.328;8.720;2022-07-04T00:38:44;99936.38;;;25.29;34.60
14383;BME280;7275;50.328;8.720;2022-07-04T00:41:12;99936.66;;;25.26;34.75
14383;BME280;7275;50.328;8.720;2022-07-04T00:43:41;99934.94;;;25.25;34.67
14383;BME280;7275;50.328;8.720;2022-07-04T00:46:28;99931.69;;;25.22;34.76
14383;BME280;7275;50.328;8.720;2022-07-04T00:48:56;99924.81;;;25.18;34.72
14383;BME280;7275;50.328;8.720;2022-07-04T00:51:24;99928.81;;;25.14;35.01
14383;BME280;7275;50.328;8.720;2022-07-04T00:53:53;99923.72;;;25.11;35.06
14383;BME280;7275;50.328;8.720;2022-07-04T00:56:22;99929.28;;;25.09;35.03
14383;BME280;7275;50.328;8.720;2022-07-04T00:58:51;99928.69;;;25.06;35.10
14383;BME280;7275;50.328;8.720;2022-07-04T01:01:19;99935.13;;;25.05;34.97
14383;BME280;7275;50.328;8.720;2022-07-04T01:03:47;99936.25;;;25.02;35.04
14383;BME280;7275;50.328;8.720;2022-07-04T01:06:17;99950.03;;;24.99;35.25
14383;BME280;7275;50.328;8.720;2022-07-04T01:08:46;99944.38;;;24.93;35.52
14383;BME280;7275;50.328;8.720;2022-07-04T01:11:14;99936.53;;;24.90;35.42
14383;BME280;7275;50.328;8.720;2022-07-04T01:13:42;99946.91;;;24.85;35.44
14383;BME280;7275;50.328;8.720;2022-07-04T01:16:11;99939.38;;;24.79;35.27
14383;BME280;7275;50.328;8.720;2022-07-04T01:18:39;99943.34;;;24.75;35.62
14383;BME280;7275;50.328;8.720;2022-07-04T01:21:08;99936.47;;;24.71;35.48
14383;BME280;7275;50.328;8.720;2022-07-04T01:23:37;99951.28;;;24.67;35.73
14383;BME280;7275;50.328;8.720;2022-07-04T01:26:05;99955.25;;;24.63;35.67
14383;BME280;7275;50.328;8.720;2022-07-04T01:28:33;99953.69;;;24.60;35.49
14383;BME280;7275;50.328;8.720;2022-07-04T01:31:01;99962.94;;;24.57;35.81
14383;BME280;7275;50.328;8.720;2022-07-04T01:33:29;99960.22;;;24.57;35.72
14383;BME280;7275;50.328;8.720;2022-07-04T01:35:57;99961.50;;;24.53;35.92
14383;BME280;7275;50.328;8.720;2022-07-04T01:38:26;99960.06;;;24.49;36.01
14383;BME280;7275;50.328;8.720;2022-07-04T01:40:53;99962.06;;;24.47;35.98
14383;BME280;7275;50.328;8.720;2022-07-04T01:43:21;99959.75;;;24.43;35.92
14383;BME280;7275;50.328;8.720;2022-07-04T01:45:48;99960.91;;;24.40;36.05
14383;BME280;7275;50.328;8.720;2022-07-04T01:48:16;99969.44;;;24.36;36.23
14383;BME280;7275;50.328;8.720;2022-07-04T01:50:43;99971.69;;;24.31;36.08
14383;BME280;7275;50.328;8.720;2022-07-04T01:53:11;99965.00;;;24.25;36.42
14383;BME280;7275;50.328;8.720;2022-07-04T01:55:40;99970.94;;;24.19;36.45
14383;BME280;7275;50.328;8.720;2022-07-04T01:58:07;99976.59;;;24.16;36.58
14383;BME280;7275;50.328;8.720;2022-07-04T02:00:35;99977.00;;;24.12;36.68
14383;BME280;7275;50.328;8.720;2022-07-04T02:03:20;99981.13;;;24.06;36.65
14383;BME280;7275;50.328;8.720;2022-07-04T02:05:47;99980.41;;;24.04;36.48
14383;BME280;7275;50.328;8.720;2022-07-04T02:08:15;99976.94;;;24.02;36.66
14383;BME280;7275;50.328;8.720;2022-07-04T02:10:44;99976.38;;;23.99;37.02
14383;BME280;7275;50.328;8.720;2022-07-04T02:13:12;99990.00;;;23.97;37.08
14383;BME280;7275;50.328;8.720;2022-07-04T02:15:41;99974.94;;;23.95;36.87
14383;BME280;7275;50.328;8.720;2022-07-04T02:18:10;99980.59;;;23.92;37.17
14383;BME280;7275;50.328;8.720;2022-07-04T02:20:37;99981.59;;;23.91;37.03
14383;BME280;7275;50.328;8.720;2022-07-04T02:23:05;99989.81;;;23.89;37.24
14383;BME280;7275;50.328;8.720;2022-07-04T02:25:33;99989.97;;;23.88;37.21
14383;BME280;7275;50.328;8.720;2022-07-04T02:28:02;99982.25;;;23.83;37.42
14383;BME280;7275;50.328;8.720;2022-07-04T02:30:29;99994.16;;;23.80;37.45
14383;BME280;7275;50.328;8.720;2022-07-04T02:32:57;99992.47;;;23.79;37.03
14383;BME280;7275;50.328;8.720;2022-07-04T02:35:24;99990.88;;;23.77;37.19
14383;BME280;7275;50.328;8.720;2022-07-04T02:37:52;99997.53;;;23.73;37.46
14383;BME280;7275;50.328;8.720;2022-07-04T02:40:19;99995.97;;;23.70;37.54
14383;BME280;7275;50.328;8.720;2022-07-04T02:42:47;100001.50;;;23.69;37.49
14383;BME280;7275;50.328;8.720;2022-07-04T02:45:16;99998.06;;;23.67;37.49
14383;BME280;7275;50.328;8.720;2022-07-04T02:47:43;100004.59;;;23.64;37.63
14383;BME280;7275;50.328;8.720;2022-07-04T02:50:11;99994.03;;;23.61;37.25
14383;BME280;7275;50.328;8.720;2022-07-04T02:52:38;100006.09;;;23.57;37.80
14383;BME280;7275;50.328;8.720;2022-07-04T02:55:06;99999.16;;;23.55;37.48
14383;BME280;7275;50.328;8.720;2022-07-04T02:57:34;100003.94;;;23.51;37.53
14383;BME280;7275;50.328;8.720;2022-07-04T03:00:04;100006.75;;;23.50;37.71
14383;BME280;7275;50.328;8.720;2022-07-04T03:02:33;100011.56;;;23.46;37.92
14383;BME280;7275;50.328;8.720;2022-07-04T03:05:01;99996.63;;;23.42;37.87
14383;BME280;7275;50.328;8.720;2022-07-04T03:07:28;99997.75;;;23.40;38.07
14383;BME280;7275;50.328;8.720;2022-07-04T03:09:56;100001.41;;;23.39;37.97
14383;BME280;7275;50.328;8.720;2022-07-04T03:12:23;99994.56;;;23.35;37.78
14383;BME280;7275;50.328;8.720;2022-07-04T03:14:51;100002.66;;;23.35;37.75
14383;BME280;7275;50.328;8.720;2022-07-04T03:17:20;100003.78;;;23.32;38.20
14383;BME280;7275;50.328;8.720;2022-07-04T03:19:49;100006.47;;;23.32;38.02
14383;BME280;7275;50.328;8.720;2022-07-04T03:22:16;100002.91;;;23.32;37.87
14383;BME280;7275;50.328;8.720;2022-07-04T03:24:44;100011.25;;;23.29;37.86
14383;BME280;7275;50.328;8.720;2022-07-04T03:27:12;100009.66;;;23.26;37.89
14383;BME280;7275;50.328;8.720;2022-07-04T03:29:40;100004.25;;;23.26;37.98
14383;BME280;7275;50.328;8.720;2022-07-04T03:32:08;100007.97;;;23.25;38.25
14383;BME280;7275;50.328;8.720;2022-07-04T03:34:35;100007.97;;;23.25;38.25
14383;BME280;7275;50.328;8.720;2022-07-04T03:37:04;100011.53;;;23.26;37.93
14383;BME280;7275;50.328;8.720;2022-07-04T03:39:32;100012.50;;;23.25;37.97
14383;BME280;7275;50.328;8.720;2022-07-04T03:41:59;100009.81;;;23.25;38.19
14383;BME280;7275;50.328;8.720;2022-07-04T03:44:27;100017.91;;;23.25;38.09
14383;BME280;7275;50.328;8.720;2022-07-04T03:46:54;100013.22;;;23.27;38.04
14383;BME280;7275;50.328;8.720;2022-07-04T03:49:22;100020.47;;;23.26;37.95
14383;BME280;7275;50.328;8.720;2022-07-04T03:51:49;100021.19;;;23.28;37.85
14383;BME280;7275;50.328;8.720;2022-07-04T03:54:18;100017.66;;;23.28;38.06
14383;BME280;7275;50.328;8.720;2022-07-04T03:56:46;100015.69;;;23.30;37.98
14383;BME280;7275;50.328;8.720;2022-07-04T03:59:13;100019.09;;;23.32;38.23
14383;BME280;7275;50.328;8.720;2022-07-04T04:01:41;100030.66;;;23.34;37.88
14383;BME280;7275;50.328;8.720;2022-07-04T04:04:09;100034.06;;;23.36;38.26
14383;BME280;7275;50.328;8.720;2022-07-04T04:07:03;100022.41;;;23.35;38.14
14383;BME280;7275;50.328;8.720;2022-07-04T04:09:32;100030.13;;;23.40;38.02
14383;BME280;7275;50.328;8.720;2022-07-04T04:12:00;100031.81;;;23.41;37.95
14383;BME280;7275;50.328;8.720;2022-07-04T04:14:27;100032.69;;;23.41;37.77
14383;BME280;7275;50.328;8.720;2022-07-04T04:16:55;100035.16;;;23.44;37.89
14383;BME280;7275;50.328;8.720;2022-07-04T04:19:23;100033.16;;;23.46;38.02
14383;BME280;7275;50.328;8.720;2022-07-04T04:21:50;100041.13;;;23.48;37.96
14383;BME280;7275;50.328;8.720;2022-07-04T04:24:18;100040.03;;;23.50;37.96
14383;BME280;7275;50.328;8.720;2022-07-04T04:26:47;100040.59;;;23.54;37.96
14383;BME280;7275;50.328;8.720;2022-07-04T04:29:15;100042.91;;;23.58;37.78
14383;BME280;7275;50.328;8.720;2022-07-04T04:31:42;100049.63;;;23.64;37.86
14383;BME280;7275;50.328;8.720;2022-07-04T04:34:11;100045.81;;;23.66;38.19
14383;BME280;7275;50.328;8.720;2022-07-04T04:36:38;100049.09;;;23.70;38.15
14383;BME280;7275;50.328;8.720;2022-07-04T04:39:06;100051.53;;;23.73;38.12
14383;BME280;7275;50.328;8.720;2022-07-04T04:41:33;100052.03;;;23.78;38.08
14383;BME280;7275;50.328;8.720;2022-07-04T04:44:02;100050.63;;;23.83;38.04
14383;BME280;7275;50.328;8.720;2022-07-04T04:46:31;100059.16;;;23.89;37.65
14383;BME280;7275;50.328;8.720;2022-07-04T04:48:59;100063.19;;;23.94;38.02
14383;BME280;7275;50.328;8.720;2022-07-04T04:51:26;100061.94;;;23.98;37.81
14383;BME280;7275;50.328;8.720;2022-07-04T04:53:54;100072.34;;;24.03;37.88
14383;BME280;7275;50.328;8.720;2022-07-04T04:56:21;100079.38;;;24.05;37.91
14383;BME280;7275;50.328;8.720;2022-07-04T04:58:49;100075.41;;;24.09;38.15
14383;BME280;7275;50.328;8.720;2022-07-04T05:01:19;100072.28;;;24.14;38.29
14383;BME280;7275;50.328;8.720;2022-07-04T05:04:07;100078.16;;;24.19;37.97
14383;BME280;7275;50.328;8.720;2022-07-04T05:06:34;100084.88;;;24.24;38.23
14383;BME280;7275;50.328;8.720;2022-07-04T05:09:02;100090.88;;;24.28;37.95
14383;BME280;7275;50.328;8.720;2022-07-04T05:11:30;100088.63;;;24.33;38.10
14383;BME280;7275;50.328;8.720;2022-07-04T05:13:57;100083.66;;;24.38;38.00
14383;BME280;7275;50.328;8.720;2022-07-04T05:16:26;100083.28;;;24.42;38.00
14383;BME280;7275;50.328;8.720;2022-07-04T05:18:54;100091.97;;;24.46;37.87
14383;BME280;7275;50.328;8.720;2022-07-04T05:21:21;100086.16;;;24.50;37.75
14383;BME280;7275;50.328;8.720;2022-07-04T05:23:52;100091.00;;;24.56;37.65
14383;BME280;7275;50.328;8.720;2022-07-04T05:26:20;100099.44;;;24.63;37.90
14383;BME280;7275;50.328;8.720;2022-07-04T05:28:47;100099.88;;;24.68;37.39
14383;BME280;7275;50.328;8.720;2022-07-04T05:31:15;100100.31;;;24.73;37.64
14383;BME280;7275;50.328;8.720;2022-07-04T05:33:44;100094.53;;;24.78;37.70
14383;BME280;7275;50.328;8.720;2022-07-04T05:36:12;100096.69;;;24.84;37.67
14383;BME280;7275;50.328;8.720;2022-07-04T05:38:39;100101.41;;;24.91;37.72
14383;BME280;7275;50.328;8.720;2022-07-04T05:41:07;100108.97;;;24.97;37.34
14383;BME280;7275;50.328;8.720;2022-07-04T05:43:34;100106.56;;;25.04;37.28
14383;BME280;7275;50.328;8.720;2022-07-04T05:46:02;100110.59;;;25.09;37.28
14383;BME280;7275;50.328;8.720;2022-07-04T05:48:30;100120.13;;;25.13;36.96
14383;BME280;7275;50.328;8.720;2022-07-04T05:50:59;100113.28;;;25.19;37.01
14383;BME280;7275;50.328;8.720;2022-07-04T05:53:27;100112.59;;;25.26;36.92
14383;BME280;7275;50.328;8.720;2022-07-04T05:55:54;100104.66;;;25.34;37.18
14383;BME280;7275;50.328;8.720;2022-07-04T05:58:22;100103.97;;;25.42;36.89
14383;BME280;7275;50.328;8.720;2022-07-04T06:00:49;100104.53;;;25.46;36.65
14383;BME280;7275;50.328;8.720;2022-07-04T06:03:17;100100.09;;;25.54;36.68
14383;BME280;7275;50.328;8.720;2022-07-04T06:05:49;100112.38;;;25.58;36.77
14383;BME280;7275;50.328;8.720;2022-07-04T06:08:18;100112.50;;;25.66;36.64
14383;BME280;7275;50.328;8.720;2022-07-04T06:10:47;100110.25;;;25.71;36.62
14383;BME280;7275;50.328;8.720;2022-07-04T06:13:15;100114.22;;;25.77;36.46
14383;BME280;7275;50.328;8.720;2022-07-04T06:15:42;100115.78;;;25.79;36.25
14383;BME280;7275;50.328;8.720;2022-07-04T06:18:10;100121.34;;;25.87;36.20
14383;BME280;7275;50.328;8.720;2022-07-04T06:20:38;100111.09;;;25.91;35.91
14383;BME280;7275;50.328;8.720;2022-07-04T06:23:07;100116.06;;;25.95;35.97
14383;BME280;7275;50.328;8.720;2022-07-04T06:25:36;100115.47;;;26.01;35.60
14383;BME280;7275;50.328;8.720;2022-07-04T06:28:03;100119.19;;;26.10;35.43
14383;BME280;7275;50.328;8.720;2022-07-04T06:30:31;100118.06;;;26.22;35.57
14383;BME280;7275;50.328;8.720;2022-07-04T06:32:59;100118.56;;;26.35;35.11
14383;BME280;7275;50.328;8.720;2022-07-04T06:35:28;100122.97;;;26.46;35.27
14383;BME280;7275;50.328;8.720;2022-07-04T06:38:23;100119.94;;;26.58;34.89
14383;BME280;7275;50.328;8.720;2022-07-04T06:40:55;100116.16;;;26.69;34.58
14383;BME280;7275;50.328;8.720;2022-07-04T06:43:23;100119.34;;;26.74;34.66
14383;BME280;7275;50.328;8.720;2022-07-04T06:45:51;100112.59;;;26.78;34.48
14383;BME280;7275;50.328;8.720;2022-07-04T06:48:19;100116.81;;;26.90;34.37
14383;BME280;7275;50.328;8.720;2022-07-04T06:50:47;100114.91;;;27.00;34.27
14383;BME280;7275;50.328;8.720;2022-07-04T06:53:14;100116.28;;;27.14;34.01
14383;BME280;7275;50.328;8.720;2022-07-04T06:55:42;100104.03;;;27.27;34.23
14383;BME280;7275;50.328;8.720;2022-07-04T06:58:11;100104.72;;;27.39;34.11
14383;BME280;7275;50.328;8.720;2022-07-04T07:00:40;100100.91;;;27.49;33.97
14383;BME280;7275;50.328;8.720;2022-07-04T07:03:09;100095.38;;;27.59;33.67
14383;BME280;7275;50.328;8.720;2022-07-04T07:05:37;100092.56;;;27.68;33.25
14383;BME280;7275;50.328;8.720;2022-07-04T07:08:25;100089.91;;;27.77;33.16
14383;BME280;7275;50.328;8.720;2022-07-04T07:10:54;100081.31;;;27.81;33.22
14383;BME280;7275;50.328;8.720;2022-07-04T07:13:23;100072.38;;;27.89;33.07
14383;BME280;7275;50.328;8.720;2022-07-04T07:15:50;100076.88;;;27.98;32.62
14383;BME280;7275;50.328;8.720;2022-07-04T07:18:18;100078.66;;;28.07;32.78
14383;BME280;7275;50.328;8.720;2022-07-04T07:20:46;100074.13;;;28.15;32.55
14383;BME280;7275;50.328;8.720;2022-07-04T07:23:14;100075.72;;;28.26;32.50
14383;BME280;7275;50.328;8.720;2022-07-04T07:25:41;100061.19;;;28.35;32.62
14383;BME280;7275;50.328;8.720;2022-07-04T07:28:09;100060.19;;;28.44;32.12
14383;BME280;7275;50.328;8.720;2022-07-04T07:30:38;100067.22;;;28.55;32.27
14383;BME280;7275;50.328;8.720;2022-07-04T07:33:06;100073.56;;;28.63;32.32
14383;BME280;7275;50.328;8.720;2022-07-04T07:35:33;100071.56;;;28.73;32.22
14383;BME280;7275;50.328;8.720;2022-07-04T07:38:01;100078.44;;;28.85;31.36
14383;BME280;7275;50.328;8.720;2022-07-04T07:40:29;100078.13;;;28.96;31.32
14383;BME280;7275;50.328;8.720;2022-07-04T07:42:56;100073.56;;;29.05;31.45
14383;BME280;7275;50.328;8.720;2022-07-04T07:45:24;100078.84;;;29.14;31.59
14383;BME280;7275;50.328;8.720;2022-07-04T07:47:53;100073.50;;;29.23;30.97
14383;BME280;7275;50.328;8.720;2022-07-04T07:50:20;100068.75;;;29.33;31.02
14383;BME280;7275;50.328;8.720;2022-07-04T07:52:48;100067.56;;;29.43;31.41
14383;BME280;7275;50.328;8.720;2022-07-04T07:55:16;100075.06;;;29.49;30.86
14383;BME280;7275;50.328;8.720;2022-07-04T07:57:43;100069.25;;;29.52;30.27
14383;BME280;7275;50.328;8.720;2022-07-04T08:00:15;100069.63;;;29.57;30.44
14383;BME280;7275;50.328;8.720;2022-07-04T08:03:04;100063.31;;;29.65;30.20
14383;BME280;7275;50.328;8.720;2022-07-04T08:05:49;100065.34;;;29.71;30.33
14383;BME280;7275;50.328;8.720;2022-07-04T08:08:17;100060.97;;;29.78;30.45
14383;BME280;7275;50.328;8.720;2022-07-04T08:10:44;100059.41;;;29.83;29.90
14383;BME280;7275;50.328;8.720;2022-07-04T08:13:12;100065.56;;;29.93;29.96
14383;BME280;7275;50.328;8.720;2022-07-04T08:15:39;100061.28;;;30.07;29.77
14383;BME280;7275;50.328;8.720;2022-07-04T08:18:08;100058.00;;;30.20;30.23
14383;BME280;7275;50.328;8.720;2022-07-04T08:20:36;100057.81;;;30.29;29.57
14383;BME280;7275;50.328;8.720;2022-07-04T08:23:24;100056.13;;;30.36;29.35
14383;BME280;7275;50.328;8.720;2022-07-04T08:25:51;100059.69;;;30.45;29.35
14383;BME280;7275;50.328;8.720;2022-07-04T08:28:19;100055.91;;;30.54;29.07
14383;BME280;7275;50.328;8.720;2022-07-04T08:30:46;100051.44;;;30.61;28.68
14383;BME280;7275;50.328;8.720;2022-07-04T08:33:15;100055.00;;;30.69;28.87
14383;BME280;7275;50.328;8.720;2022-07-04T08:35:43;100052.06;;;30.79;28.81
14383;BME280;7275;50.328;8.720;2022-07-04T08:38:11;100056.81;;;30.93;28.39
14383;BME280;7275;50.328;8.720;2022-07-04T08:40:40;100049.22;;;31.03;28.42
14383;BME280;7275;50.328;8.720;2022-07-04T08:43:12;100047.66;;;31.09;27.78
14383;BME280;7275;50.328;8.720;2022-07-04T08:45:41;100057.56;;;31.10;28.01
14383;BME280;7275;50.328;8.720;2022-07-04T08:48:31;100049.66;;;31.15;27.81
14383;BME280;7275;50.328;8.720;2022-07-04T08:51:04;100048.44;;;31.17;27.62
14383;BME280;7275;50.328;8.720;2022-07-04T08:53:37;100039.59;;;31.15;27.46
14383;BME280;7275;50.328;8.720;2022-07-04T08:56:06;100035.47;;;31.19;27.64
14383;BME280;7275;50.328;8.720;2022-07-04T08:58:54;100032.31;;;31.30;27.61
14383;BME280;7275;50.328;8.720;2022-07-04T09:01:22;100031.75;;;31.43;27.58
14383;BME280;7275;50.328;8.720;2022-07-04T09:03:53;100026.13;;;31.59;26.90
14383;BME280;7275;50.328;8.720;2022-07-04T09:06:20;100022.13;;;31.70;26.88
14383;BME280;7275;50.328;8.720;2022-07-04T09:08:48;100023.91;;;31.77;26.60
14383;BME280;7275;50.328;8.720;2022-07-04T09:11:17;100013.94;;;31.84;26.45
14383;BME280;7275;50.328;8.720;2022-07-04T09:13:45;100025.00;;;31.91;26.21
14383;BME280;7275;50.328;8.720;2022-07-04T09:16:13;100011.66;;;31.96;26.34
14383;BME280;7275;50.328;8.720;2022-07-04T09:18:41;100019.78;;;32.04;26.23
14383;BME280;7275;50.328;8.720;2022-07-04T09:21:10;100016.75;;;32.13;26.24
14383;BME280;7275;50.328;8.720;2022-07-04T09:23:41;100015.25;;;32.25;26.08
14383;BME280;7275;50.328;8.720;2022-07-04T09:26:11;100016.97;;;32.41;26.07
14383;BME280;7275;50.328;8.720;2022-07-04T09:28:41;100006.25;;;32.54;25.13
14383;BME280;7275;50.328;8.720;2022-07-04T09:31:17;100016.69;;;32.65;25.58
14383;BME280;7275;50.328;8.720;2022-07-04T09:33:47;100016.13;;;32.70;25.70
14383;BME280;7275;50.328;8.720;2022-07-04T09:36:19;100012.16;;;32.72;25.23
14383;BME280;7275;50.328;8.720;2022-07-04T09:41:52;100005.44;;;32.75;25.04
14383;BME280;7275;50.328;8.720;2022-07-04T09:44:21;100011.84;;;32.82;24.78
14383;BME280;7275;50.328;8.720;2022-07-04T09:46:49;100004.00;;;32.93;24.77
14383;BME280;7275;50.328;8.720;2022-07-04T09:49:17;99998.88;;;33.05;24.41
14383;BME280;7275;50.328;8.720;2022-07-04T09:51:47;99998.56;;;33.15;24.34
14383;BME280;7275;50.328;8.720;2022-07-04T09:54:21;99992.38;;;33.27;24.09
14383;BME280;7275;50.328;8.720;2022-07-04T09:56:52;99994.78;;;33.37;23.78
14383;BME280;7275;50.328;8.720;2022-07-04T09:59:21;99994.00;;;33.43;23.23
14383;BME280;7275;50.328;8.720;2022-07-04T10:01:49;99992.34;;;33.48;23.53
14383;BME280;7275;50.328;8.720;2022-07-04T10:04:16;99995.66;;;33.58;23.83
14383;BME280;7275;50.328;8.720;2022-07-04T10:06:48;99990.25;;;33.71;23.14
14383;BME280;7275;50.328;8.720;2022-07-04T10:09:17;99988.03;;;33.81;23.22
14383;BME280;7275;50.328;8.720;2022-07-04T10:11:46;99988.34;;;33.93;22.95
14383;BME280;7275;50.328;8.720;2022-07-04T10:14:14;99993.22;;;33.98;22.85
14383;BME280;7275;50.328;8.720;2022-07-04T10:16:43;99990.28;;;33.99;23.28
14383;BME280;7275;50.328;8.720;2022-07-04T10:19:11;99990.78;;;34.09;22.61
14383;BME280;7275;50.328;8.720;2022-07-04T10:21:39;99991.28;;;34.19;22.42
14383;BME280;7275;50.328;8.720;2022-07-04T10:24:09;99996.22;;;34.30;22.34
14383;BME280;7275;50.328;8.720;2022-07-04T10:26:36;100005.94;;;34.33;22.00
14383;BME280;7275;50.328;8.720;2022-07-04T10:29:06;99998.34;;;34.35;21.99
14383;BME280;7275;50.328;8.720;2022-07-04T10:31:34;100006.00;;;34.39;22.26
14383;BME280;7275;50.328;8.720;2022-07-04T10:34:02;100006.03;;;34.46;21.90
14383;BME280;7275;50.328;8.720;2022-07-04T10:36:30;99997.00;;;34.52;22.09
14383;BME280;7275;50.328;8.720;2022-07-04T10:38:59;99987.50;;;34.54;21.92
14383;BME280;7275;50.328;8.720;2022-07-04T10:41:30;99988.16;;;34.63;22.47
14383;BME280;7275;50.328;8.720;2022-07-04T10:44:02;99990.13;;;34.76;22.21
14383;BME280;7275;50.328;8.720;2022-07-04T10:46:51;99979.59;;;34.86;21.80
14383;BME280;7275;50.328;8.720;2022-07-04T10:49:25;99985.34;;;34.97;21.39
14383;BME280;7275;50.328;8.720;2022-07-04T10:51:55;99984.56;;;35.10;21.50
14383;BME280;7275;50.328;8.720;2022-07-04T10:54:29;99983.50;;;35.17;21.13
14383;BME280;7275;50.328;8.720;2022-07-04T10:57:09;99990.50;;;35.20;21.05
14383;BME280;7275;50.328;8.720;2022-07-04T10:59:38;99989.47;;;35.21;21.04
14383;BME280;7275;50.328;8.720;2022-07-04T11:02:27;99995.97;;;35.13;21.59
14383;BME280;7275;50.328;8.720;2022-07-04T11:05:01;99994.72;;;35.16;21.54
14383;BME280;7275;50.328;8.720;2022-07-04T11:08:00;99998.09;;;35.11;21.06
14383;BME280;7275;50.328;8.720;2022-07-04T11:10:30;100001.28;;;35.15;21.64
14383;BME280;7275;50.328;8.720;2022-07-04T11:13:17;100009.53;;;35.28;21.28
14383;BME280;7275;50.328;8.720;2022-07-04T11:16:06;100002.59;;;35.38;21.52
14383;BME280;7275;50.328;8.720;2022-07-04T11:18:41;100005.00;;;35.55;20.98
14383;BME280;7275;50.328;8.720;2022-07-04T11:21:16;100002.44;;;35.66;20.73
14383;BME280;7275;50.328;8.720;2022-07-04T11:23:54;100003.31;;;35.73;21.04
14383;BME280;7275;50.328;8.720;2022-07-04T11:26:23;100012.81;;;35.77;20.66
14383;BME280;7275;50.328;8.720;2022-07-04T11:28:53;100010.91;;;35.71;20.23
14383;BME280;7275;50.328;8.720;2022-07-04T11:31:20;100009.03;;;35.65;19.98
14383;BME280;7275;50.328;8.720;2022-07-04T11:33:54;100006.47;;;35.64;20.57
14383;BME280;7275;50.328;8.720;2022-07-04T11:36:22;99991.44;;;35.66;20.46
14383;BME280;7275;50.328;8.720;2022-07-04T11:38:52;100000.31;;;35.75;20.37
14383;BME280;7275;50.328;8.720;2022-07-04T11:41:23;99997.56;;;35.81;20.29
14383;BME280;7275;50.328;8.720;2022-07-04T11:44:12;99996.91;;;35.92;20.17
14383;BME280;7275;50.328;8.720;2022-07-04T11:47:02;99989.75;;;35.98;20.07
14383;BME280;7275;50.328;8.720;2022-07-04T11:49:30;99987.19;;;36.03;19.71
14383;BME280;7275;50.328;8.720;2022-07-04T11:51:58;99984.88;;;36.06;19.50
14383;BME280;7275;50.328;8.720;2022-07-04T11:54:25;99984.03;;;36.13;20.11
14383;BME280;7275;50.328;8.720;2022-07-04T11:57:18;99982.50;;;36.23;20.13
14383;BME280;7275;50.328;8.720;2022-07-04T11:59:56;99983.31;;;36.37;19.75
14383;BME280;7275;50.328;8.720;2022-07-04T12:02:25;99978.19;;;36.53;19.89
14383;BME280;7275;50.328;8.720;2022-07-04T12:04:54;99979.81;;;36.74;19.36
14383;BME280;7275;50.328;8.720;2022-07-04T12:07:23;99978.06;;;36.86;19.07
14383;BME280;7275;50.328;8.720;2022-07-04T12:09:51;99975.50;;;36.84;18.84
14383;BME280;7275;50.328;8.720;2022-07-04T12:12:20;99971.28;;;36.88;19.20
14383;BME280;7275;50.328;8.720;2022-07-04T12:15:01;99977.41;;;36.91;19.05
14383;BME280;7275;50.328;8.720;2022-07-04T12:17:32;99974.25;;;36.94;19.00
14383;BME280;7275;50.328;8.720;2022-07-04T12:20:01;99971.25;;;36.95;18.72
14383;BME280;7275;50.328;8.720;2022-07-04T12:22:37;99968.84;;;37.05;19.04
14383;BME280;7275;50.328;8.720;2022-07-04T12:25:07;99975.78;;;37.21;18.70
14383;BME280;7275;50.328;8.720;2022-07-04T12:27:36;99979.97;;;37.30;18.44
14383;BME280;7275;50.328;8.720;2022-07-04T12:30:06;99969.38;;;37.27;18.14
14383;BME280;7275;50.328;8.720;2022-07-04T12:32:44;99959.22;;;37.21;18.38
14383;BME280;7275;50.328;8.720;2022-07-04T12:35:37;99955.00;;;37.18;18.28
14383;BME280;7275;50.328;8.720;2022-07-04T12:38:07;99953.50;;;37.16;18.38
14383;BME280;7275;50.328;8.720;2022-07-04T12:40:36;99954.75;;;37.20;17.94
14383;BME280;7275;50.328;8.720;2022-07-04T12:43:09;99950.09;;;37.20;18.19
14383;BME280;7275;50.328;8.720;2022-07-04T12:45:45;99948.19;;;37.21;17.85
14383;BME280;7275;50.328;8.720;2022-07-04T12:48:22;99944.75;;;37.25;18.04
14383;BME280;7275;50.328;8.720;2022-07-04T12:50:50;99947.69;;;37.30;17.66
14383;BME280;7275;50.328;8.720;2022-07-04T12:53:19;99929.44;;;37.29;17.89
14383;BME280;7275;50.328;8.720;2022-07-04T12:55:48;99930.31;;;37.30;17.94
14383;BME280;7275;50.328;8.720;2022-07-04T12:58:16;99939.84;;;37.34;17.69
14383;BME280;7275;50.328;8.720;2022-07-04T13:00:45;99932.41;;;37.34;17.13
14383;BME280;7275;50.328;8.720;2022-07-04T13:03:12;99929.63;;;37.34;17.57
14383;BME280;7275;50.328;8.720;2022-07-04T13:05:41;99928.78;;;37.40;17.37
14383;BME280;7275;50.328;8.720;2022-07-04T13:08:09;99928.47;;;37.48;17.34
14383;BME280;7275;50.328;8.720;2022-07-04T13:10:38;99923.53;;;37.57;17.49
14383;BME280;7275;50.328;8.720;2022-07-04T13:13:05;99935.63;;;37.56;17.16
14383;BME280;7275;50.328;8.720;2022-07-04T13:15:33;99927.81;;;37.53;17.22
14383;BME280;7275;50.328;8.720;2022-07-04T13:18:02;99927.09;;;37.57;17.47
14383;BME280;7275;50.328;8.720;2022-07-04T13:20:30;99930.06;;;37.62;17.14
14383;BME280;7275;50.328;8.720;2022-07-04T13:22:57;99925.53;;;37.68;17.29